Terminal Aerodrome Forecast
Issued by NWS New Orleans/Baton Rouge, LA

Home | Current Version | Previous Version | Text Only | Print | Product List | Glossary On
Versions: 1 2 3 4 5 6 7 8 9 10 11 12 13 14
000
FTUS44 KLIX 011600 AAB
TAFBTR
TAF AMD
KBTR 011608Z 0116/0212 12005KT 6SM -SHRA SCT030 BKN090 OVC130
      TEMPO 0116/0117 3SM SHRA SCT030 BKN060
     FM011800 16005KT 5SM -SHRA BR SCT020 BKN035 OVC120
     FM012200 09006KT P6SM VCSH SCT025 BKN040 OVC110
     FM020100 00000KT P6SM BKN035=

USA.gov is the U.S. government's official web portal to all federal, state and local government web resources and services.